<?xml version="1.0" encoding="UTF-8" standalone="no" ?>
<gpx xmlns="http://www.topografix.com/GPX/1/1" xmlns:xsi="http://www.w3.org/2001/XMLSchema-instance" xsi:schemaLocation="http://www.topografix.com/GPX/1/1 http://www.topografix.com/GPX/1/1/gpx.xsd" version="1.1" creator="VisuGPX - https://www.visugpx.com">
  <metadata>
    <name>Balacet Uchentein cabane de l'Arraing 3h36 6,5km 1,7km/h club 18 08 2021</name>
  </metadata>
  <trk>
    <name><![CDATA[Balacet Uchentein cabane de l'Arraing 3h36 6,5km 1,7km/h club 18 08 2021]]></name>
    <trkseg>
      <trkpt lat="42.88359" lon="0.9814">
        <ele>920</ele>
        <time>2021-08-18T08:20:12+02:00</time>
      </trkpt>
      <trkpt lat="42.88344" lon="0.98138">
        <ele>940</ele>
        <time>2021-08-18T08:20:14+02:00</time>
      </trkpt>
      <trkpt lat="42.88327" lon="0.9813">
        <ele>950</ele>
        <time>2021-08-18T08:20:16+02:00</time>
      </trkpt>
      <trkpt lat="42.88325" lon="0.98127">
        <ele>952</ele>
        <time>2021-08-18T08:20:45+02:00</time>
      </trkpt>
      <trkpt lat="42.88338" lon="0.98124">
        <ele>958</ele>
        <time>2021-08-18T08:23:14+02:00</time>
      </trkpt>
      <trkpt lat="42.88352" lon="0.98125">
        <ele>962</ele>
        <time>2021-08-18T08:23:57+02:00</time>
      </trkpt>
      <trkpt lat="42.88366" lon="0.98127">
        <ele>963</ele>
        <time>2021-08-18T08:24:23+02:00</time>
      </trkpt>
      <trkpt lat="42.8838" lon="0.98129">
        <ele>962</ele>
        <time>2021-08-18T08:24:34+02:00</time>
      </trkpt>
      <trkpt lat="42.88392" lon="0.98139">
        <ele>966</ele>
        <time>2021-08-18T08:24:47+02:00</time>
      </trkpt>
      <trkpt lat="42.88403" lon="0.98151">
        <ele>972</ele>
        <time>2021-08-18T08:25:20+02:00</time>
      </trkpt>
      <trkpt lat="42.88414" lon="0.98162">
        <ele>973</ele>
        <time>2021-08-18T08:25:55+02:00</time>
      </trkpt>
      <trkpt lat="42.88421" lon="0.9818">
        <ele>973</ele>
        <time>2021-08-18T08:26:06+02:00</time>
      </trkpt>
      <trkpt lat="42.88424" lon="0.98199">
        <ele>975</ele>
        <time>2021-08-18T08:26:16+02:00</time>
      </trkpt>
      <trkpt lat="42.8843" lon="0.98216">
        <ele>975</ele>
        <time>2021-08-18T08:26:25+02:00</time>
      </trkpt>
      <trkpt lat="42.88438" lon="0.98231">
        <ele>972</ele>
        <time>2021-08-18T08:26:34+02:00</time>
      </trkpt>
      <trkpt lat="42.88438" lon="0.98251">
        <ele>974</ele>
        <time>2021-08-18T08:27:09+02:00</time>
      </trkpt>
      <trkpt lat="42.88434" lon="0.98269">
        <ele>979</ele>
        <time>2021-08-18T08:27:21+02:00</time>
      </trkpt>
      <trkpt lat="42.88426" lon="0.98285">
        <ele>982</ele>
        <time>2021-08-18T08:27:33+02:00</time>
      </trkpt>
      <trkpt lat="42.88416" lon="0.98297">
        <ele>986</ele>
        <time>2021-08-18T08:27:47+02:00</time>
      </trkpt>
      <trkpt lat="42.88408" lon="0.98313">
        <ele>989</ele>
        <time>2021-08-18T08:28:37+02:00</time>
      </trkpt>
      <trkpt lat="42.88402" lon="0.9833">
        <ele>988</ele>
        <time>2021-08-18T08:28:56+02:00</time>
      </trkpt>
      <trkpt lat="42.88394" lon="0.98348">
        <ele>989</ele>
        <time>2021-08-18T08:29:04+02:00</time>
      </trkpt>
      <trkpt lat="42.88388" lon="0.98364">
        <ele>983</ele>
        <time>2021-08-18T08:29:17+02:00</time>
      </trkpt>
      <trkpt lat="42.88382" lon="0.98382">
        <ele>981</ele>
        <time>2021-08-18T08:29:37+02:00</time>
      </trkpt>
      <trkpt lat="42.88375" lon="0.98399">
        <ele>981</ele>
        <time>2021-08-18T08:29:48+02:00</time>
      </trkpt>
      <trkpt lat="42.88371" lon="0.98416">
        <ele>983</ele>
        <time>2021-08-18T08:30:00+02:00</time>
      </trkpt>
      <trkpt lat="42.88371" lon="0.98436">
        <ele>983</ele>
        <time>2021-08-18T08:30:13+02:00</time>
      </trkpt>
      <trkpt lat="42.88369" lon="0.98455">
        <ele>984</ele>
        <time>2021-08-18T08:30:37+02:00</time>
      </trkpt>
      <trkpt lat="42.88375" lon="0.98472">
        <ele>984</ele>
        <time>2021-08-18T08:30:47+02:00</time>
      </trkpt>
      <trkpt lat="42.88376" lon="0.9849">
        <ele>986</ele>
        <time>2021-08-18T08:31:01+02:00</time>
      </trkpt>
      <trkpt lat="42.88376" lon="0.9851">
        <ele>985</ele>
        <time>2021-08-18T08:31:27+02:00</time>
      </trkpt>
      <trkpt lat="42.8838" lon="0.98529">
        <ele>984</ele>
        <time>2021-08-18T08:31:35+02:00</time>
      </trkpt>
      <trkpt lat="42.8838" lon="0.9855">
        <ele>989</ele>
        <time>2021-08-18T08:31:55+02:00</time>
      </trkpt>
      <trkpt lat="42.88381" lon="0.98569">
        <ele>991</ele>
        <time>2021-08-18T08:32:04+02:00</time>
      </trkpt>
      <trkpt lat="42.88378" lon="0.98588">
        <ele>990</ele>
        <time>2021-08-18T08:32:16+02:00</time>
      </trkpt>
      <trkpt lat="42.88372" lon="0.98606">
        <ele>991</ele>
        <time>2021-08-18T08:32:28+02:00</time>
      </trkpt>
      <trkpt lat="42.88363" lon="0.9862">
        <ele>994</ele>
        <time>2021-08-18T08:32:40+02:00</time>
      </trkpt>
      <trkpt lat="42.88355" lon="0.98637">
        <ele>994</ele>
        <time>2021-08-18T08:32:56+02:00</time>
      </trkpt>
      <trkpt lat="42.88346" lon="0.98652">
        <ele>998</ele>
        <time>2021-08-18T08:33:08+02:00</time>
      </trkpt>
      <trkpt lat="42.8834" lon="0.9867">
        <ele>996</ele>
        <time>2021-08-18T08:33:18+02:00</time>
      </trkpt>
      <trkpt lat="42.88335" lon="0.98687">
        <ele>996</ele>
        <time>2021-08-18T08:33:35+02:00</time>
      </trkpt>
      <trkpt lat="42.88331" lon="0.98705">
        <ele>994</ele>
        <time>2021-08-18T08:33:51+02:00</time>
      </trkpt>
      <trkpt lat="42.88329" lon="0.98725">
        <ele>990</ele>
        <time>2021-08-18T08:34:05+02:00</time>
      </trkpt>
      <trkpt lat="42.88327" lon="0.98744">
        <ele>987</ele>
        <time>2021-08-18T08:34:14+02:00</time>
      </trkpt>
      <trkpt lat="42.88321" lon="0.98761">
        <ele>987</ele>
        <time>2021-08-18T08:34:25+02:00</time>
      </trkpt>
      <trkpt lat="42.8832" lon="0.98782">
        <ele>985</ele>
        <time>2021-08-18T08:34:36+02:00</time>
      </trkpt>
      <trkpt lat="42.88323" lon="0.988">
        <ele>979</ele>
        <time>2021-08-18T08:34:49+02:00</time>
      </trkpt>
      <trkpt lat="42.88319" lon="0.98818">
        <ele>981</ele>
        <time>2021-08-18T08:35:06+02:00</time>
      </trkpt>
      <trkpt lat="42.88324" lon="0.98836">
        <ele>982</ele>
        <time>2021-08-18T08:35:21+02:00</time>
      </trkpt>
      <trkpt lat="42.88323" lon="0.98855">
        <ele>988</ele>
        <time>2021-08-18T08:35:33+02:00</time>
      </trkpt>
      <trkpt lat="42.88331" lon="0.98871">
        <ele>992</ele>
        <time>2021-08-18T08:35:47+02:00</time>
      </trkpt>
      <trkpt lat="42.88338" lon="0.98888">
        <ele>995</ele>
        <time>2021-08-18T08:35:59+02:00</time>
      </trkpt>
      <trkpt lat="42.88345" lon="0.98903">
        <ele>995</ele>
        <time>2021-08-18T08:36:13+02:00</time>
      </trkpt>
      <trkpt lat="42.88355" lon="0.98918">
        <ele>997</ele>
        <time>2021-08-18T08:36:29+02:00</time>
      </trkpt>
      <trkpt lat="42.88367" lon="0.9893">
        <ele>999</ele>
        <time>2021-08-18T08:36:46+02:00</time>
      </trkpt>
      <trkpt lat="42.8838" lon="0.98935">
        <ele>999</ele>
        <time>2021-08-18T08:37:11+02:00</time>
      </trkpt>
      <trkpt lat="42.88394" lon="0.98941">
        <ele>999</ele>
        <time>2021-08-18T08:37:20+02:00</time>
      </trkpt>
      <trkpt lat="42.88408" lon="0.98945">
        <ele>1002</ele>
        <time>2021-08-18T08:37:34+02:00</time>
      </trkpt>
      <trkpt lat="42.88419" lon="0.98957">
        <ele>1006</ele>
        <time>2021-08-18T08:37:46+02:00</time>
      </trkpt>
      <trkpt lat="42.88426" lon="0.98973">
        <ele>1009</ele>
        <time>2021-08-18T08:37:55+02:00</time>
      </trkpt>
      <trkpt lat="42.88432" lon="0.9899">
        <ele>1012</ele>
        <time>2021-08-18T08:38:08+02:00</time>
      </trkpt>
      <trkpt lat="42.88437" lon="0.99008">
        <ele>1010</ele>
        <time>2021-08-18T08:38:30+02:00</time>
      </trkpt>
      <trkpt lat="42.8844" lon="0.99027">
        <ele>1008</ele>
        <time>2021-08-18T08:38:49+02:00</time>
      </trkpt>
      <trkpt lat="42.88444" lon="0.99045">
        <ele>1009</ele>
        <time>2021-08-18T08:39:05+02:00</time>
      </trkpt>
      <trkpt lat="42.88448" lon="0.99064">
        <ele>1012</ele>
        <time>2021-08-18T08:39:19+02:00</time>
      </trkpt>
      <trkpt lat="42.88454" lon="0.99082">
        <ele>1016</ele>
        <time>2021-08-18T08:39:38+02:00</time>
      </trkpt>
      <trkpt lat="42.88462" lon="0.99097">
        <ele>1017</ele>
        <time>2021-08-18T08:39:48+02:00</time>
      </trkpt>
      <trkpt lat="42.88468" lon="0.99115">
        <ele>1018</ele>
        <time>2021-08-18T08:40:04+02:00</time>
      </trkpt>
      <trkpt lat="42.88475" lon="0.99132">
        <ele>1019</ele>
        <time>2021-08-18T08:40:22+02:00</time>
      </trkpt>
      <trkpt lat="42.88476" lon="0.99153">
        <ele>1021</ele>
        <time>2021-08-18T08:40:35+02:00</time>
      </trkpt>
      <trkpt lat="42.88475" lon="0.99171">
        <ele>1021</ele>
        <time>2021-08-18T08:40:49+02:00</time>
      </trkpt>
      <trkpt lat="42.88472" lon="0.99189">
        <ele>1025</ele>
        <time>2021-08-18T08:41:06+02:00</time>
      </trkpt>
      <trkpt lat="42.88476" lon="0.99207">
        <ele>1028</ele>
        <time>2021-08-18T08:41:24+02:00</time>
      </trkpt>
      <trkpt lat="42.8849" lon="0.99199">
        <ele>1030</ele>
        <time>2021-08-18T08:42:18+02:00</time>
      </trkpt>
      <trkpt lat="42.88504" lon="0.99196">
        <ele>1031</ele>
        <time>2021-08-18T08:42:32+02:00</time>
      </trkpt>
      <trkpt lat="42.8852" lon="0.99188">
        <ele>1035</ele>
        <time>2021-08-18T08:43:09+02:00</time>
      </trkpt>
      <trkpt lat="42.88532" lon="0.99177">
        <ele>1039</ele>
        <time>2021-08-18T08:43:25+02:00</time>
      </trkpt>
      <trkpt lat="42.88544" lon="0.99166">
        <ele>1045</ele>
        <time>2021-08-18T08:43:53+02:00</time>
      </trkpt>
      <trkpt lat="42.88554" lon="0.99153">
        <ele>1056</ele>
        <time>2021-08-18T08:44:19+02:00</time>
      </trkpt>
      <trkpt lat="42.88562" lon="0.99138">
        <ele>1065</ele>
        <time>2021-08-18T08:44:46+02:00</time>
      </trkpt>
      <trkpt lat="42.88571" lon="0.99123">
        <ele>1068</ele>
        <time>2021-08-18T08:45:12+02:00</time>
      </trkpt>
      <trkpt lat="42.88581" lon="0.99108">
        <ele>1070</ele>
        <time>2021-08-18T08:45:25+02:00</time>
      </trkpt>
      <trkpt lat="42.88589" lon="0.99092">
        <ele>1072</ele>
        <time>2021-08-18T08:45:40+02:00</time>
      </trkpt>
      <trkpt lat="42.88599" lon="0.99078">
        <ele>1074</ele>
        <time>2021-08-18T08:45:55+02:00</time>
      </trkpt>
      <trkpt lat="42.88606" lon="0.99061">
        <ele>1083</ele>
        <time>2021-08-18T08:46:14+02:00</time>
      </trkpt>
      <trkpt lat="42.88618" lon="0.99052">
        <ele>1082</ele>
        <time>2021-08-18T08:46:33+02:00</time>
      </trkpt>
      <trkpt lat="42.88628" lon="0.9904">
        <ele>1085</ele>
        <time>2021-08-18T08:46:54+02:00</time>
      </trkpt>
      <trkpt lat="42.88642" lon="0.99038">
        <ele>1090</ele>
        <time>2021-08-18T08:47:17+02:00</time>
      </trkpt>
      <trkpt lat="42.88653" lon="0.99027">
        <ele>1091</ele>
        <time>2021-08-18T08:47:31+02:00</time>
      </trkpt>
      <trkpt lat="42.88654" lon="0.99009">
        <ele>1095</ele>
        <time>2021-08-18T08:48:12+02:00</time>
      </trkpt>
      <trkpt lat="42.88651" lon="0.98991">
        <ele>1100</ele>
        <time>2021-08-18T08:48:32+02:00</time>
      </trkpt>
      <trkpt lat="42.8865" lon="0.98972">
        <ele>1103</ele>
        <time>2021-08-18T08:49:01+02:00</time>
      </trkpt>
      <trkpt lat="42.88647" lon="0.98953">
        <ele>1110</ele>
        <time>2021-08-18T08:49:23+02:00</time>
      </trkpt>
      <trkpt lat="42.88642" lon="0.98935">
        <ele>1115</ele>
        <time>2021-08-18T08:49:39+02:00</time>
      </trkpt>
      <trkpt lat="42.88632" lon="0.98922">
        <ele>1120</ele>
        <time>2021-08-18T08:49:58+02:00</time>
      </trkpt>
      <trkpt lat="42.88624" lon="0.98907">
        <ele>1121</ele>
        <time>2021-08-18T08:50:14+02:00</time>
      </trkpt>
      <trkpt lat="42.88615" lon="0.98892">
        <ele>1126</ele>
        <time>2021-08-18T08:50:32+02:00</time>
      </trkpt>
      <trkpt lat="42.88609" lon="0.98875">
        <ele>1126</ele>
        <time>2021-08-18T08:50:47+02:00</time>
      </trkpt>
      <trkpt lat="42.88601" lon="0.98859">
        <ele>1130</ele>
        <time>2021-08-18T08:51:08+02:00</time>
      </trkpt>
      <trkpt lat="42.88596" lon="0.98841">
        <ele>1134</ele>
        <time>2021-08-18T08:51:43+02:00</time>
      </trkpt>
      <trkpt lat="42.8861" lon="0.98844">
        <ele>1136</ele>
        <time>2021-08-18T08:56:51+02:00</time>
      </trkpt>
      <trkpt lat="42.88597" lon="0.9885">
        <ele>1142</ele>
        <time>2021-08-18T08:57:11+02:00</time>
      </trkpt>
      <trkpt lat="42.88608" lon="0.98863">
        <ele>1142</ele>
        <time>2021-08-18T08:57:17+02:00</time>
      </trkpt>
      <trkpt lat="42.88622" lon="0.98862">
        <ele>1144</ele>
        <time>2021-08-18T08:57:26+02:00</time>
      </trkpt>
      <trkpt lat="42.88608" lon="0.98861">
        <ele>1148</ele>
        <time>2021-08-18T08:57:47+02:00</time>
      </trkpt>
      <trkpt lat="42.88602" lon="0.98845">
        <ele>1149</ele>
        <time>2021-08-18T08:58:57+02:00</time>
      </trkpt>
      <trkpt lat="42.88615" lon="0.98857">
        <ele>1152</ele>
        <time>2021-08-18T08:59:14+02:00</time>
      </trkpt>
      <trkpt lat="42.88628" lon="0.98867">
        <ele>1152</ele>
        <time>2021-08-18T08:59:19+02:00</time>
      </trkpt>
      <trkpt lat="42.88614" lon="0.98863">
        <ele>1145</ele>
        <time>2021-08-18T08:59:51+02:00</time>
      </trkpt>
      <trkpt lat="42.88608" lon="0.98846">
        <ele>1136</ele>
        <time>2021-08-18T09:03:53+02:00</time>
      </trkpt>
      <trkpt lat="42.88611" lon="0.98827">
        <ele>1141</ele>
        <time>2021-08-18T09:04:08+02:00</time>
      </trkpt>
      <trkpt lat="42.88619" lon="0.98812">
        <ele>1143</ele>
        <time>2021-08-18T09:04:22+02:00</time>
      </trkpt>
      <trkpt lat="42.88635" lon="0.98817">
        <ele>1142</ele>
        <time>2021-08-18T09:04:34+02:00</time>
      </trkpt>
      <trkpt lat="42.88648" lon="0.98821">
        <ele>1144</ele>
        <time>2021-08-18T09:04:52+02:00</time>
      </trkpt>
      <trkpt lat="42.88662" lon="0.98823">
        <ele>1145</ele>
        <time>2021-08-18T09:05:15+02:00</time>
      </trkpt>
      <trkpt lat="42.88675" lon="0.98826">
        <ele>1146</ele>
        <time>2021-08-18T09:05:31+02:00</time>
      </trkpt>
      <trkpt lat="42.88689" lon="0.9883">
        <ele>1148</ele>
        <time>2021-08-18T09:05:47+02:00</time>
      </trkpt>
      <trkpt lat="42.88703" lon="0.98833">
        <ele>1151</ele>
        <time>2021-08-18T09:06:16+02:00</time>
      </trkpt>
      <trkpt lat="42.88717" lon="0.98825">
        <ele>1156</ele>
        <time>2021-08-18T09:06:50+02:00</time>
      </trkpt>
      <trkpt lat="42.88731" lon="0.98821">
        <ele>1155</ele>
        <time>2021-08-18T09:07:01+02:00</time>
      </trkpt>
      <trkpt lat="42.88737" lon="0.98804">
        <ele>1157</ele>
        <time>2021-08-18T09:07:37+02:00</time>
      </trkpt>
      <trkpt lat="42.88751" lon="0.98798">
        <ele>1159</ele>
        <time>2021-08-18T09:07:53+02:00</time>
      </trkpt>
      <trkpt lat="42.88765" lon="0.98799">
        <ele>1161</ele>
        <time>2021-08-18T09:08:00+02:00</time>
      </trkpt>
      <trkpt lat="42.88779" lon="0.98802">
        <ele>1166</ele>
        <time>2021-08-18T09:08:20+02:00</time>
      </trkpt>
      <trkpt lat="42.88781" lon="0.98783">
        <ele>1167</ele>
        <time>2021-08-18T09:08:51+02:00</time>
      </trkpt>
      <trkpt lat="42.88777" lon="0.98801">
        <ele>1178</ele>
        <time>2021-08-18T09:10:06+02:00</time>
      </trkpt>
      <trkpt lat="42.88789" lon="0.9879">
        <ele>1176</ele>
        <time>2021-08-18T09:10:11+02:00</time>
      </trkpt>
      <trkpt lat="42.88779" lon="0.98778">
        <ele>1181</ele>
        <time>2021-08-18T09:10:59+02:00</time>
      </trkpt>
      <trkpt lat="42.88784" lon="0.9876">
        <ele>1175</ele>
        <time>2021-08-18T09:11:13+02:00</time>
      </trkpt>
      <trkpt lat="42.88799" lon="0.98766">
        <ele>1176</ele>
        <time>2021-08-18T09:11:23+02:00</time>
      </trkpt>
      <trkpt lat="42.88809" lon="0.98779">
        <ele>1176</ele>
        <time>2021-08-18T09:11:30+02:00</time>
      </trkpt>
      <trkpt lat="42.88822" lon="0.98773">
        <ele>1180</ele>
        <time>2021-08-18T09:11:39+02:00</time>
      </trkpt>
      <trkpt lat="42.88835" lon="0.98786">
        <ele>1185</ele>
        <time>2021-08-18T09:12:26+02:00</time>
      </trkpt>
      <trkpt lat="42.8885" lon="0.98793">
        <ele>1187</ele>
        <time>2021-08-18T09:12:34+02:00</time>
      </trkpt>
      <trkpt lat="42.88854" lon="0.98811">
        <ele>1193</ele>
        <time>2021-08-18T09:13:40+02:00</time>
      </trkpt>
      <trkpt lat="42.88841" lon="0.98818">
        <ele>1201</ele>
        <time>2021-08-18T09:13:50+02:00</time>
      </trkpt>
      <trkpt lat="42.88856" lon="0.9882">
        <ele>1202</ele>
        <time>2021-08-18T09:14:33+02:00</time>
      </trkpt>
      <trkpt lat="42.88867" lon="0.98832">
        <ele>1199</ele>
        <time>2021-08-18T09:14:38+02:00</time>
      </trkpt>
      <trkpt lat="42.88876" lon="0.98847">
        <ele>1186</ele>
        <time>2021-08-18T09:15:08+02:00</time>
      </trkpt>
      <trkpt lat="42.88877" lon="0.98867">
        <ele>1187</ele>
        <time>2021-08-18T09:15:17+02:00</time>
      </trkpt>
      <trkpt lat="42.88887" lon="0.9888">
        <ele>1191</ele>
        <time>2021-08-18T09:15:46+02:00</time>
      </trkpt>
      <trkpt lat="42.88895" lon="0.98899">
        <ele>1197</ele>
        <time>2021-08-18T09:15:59+02:00</time>
      </trkpt>
      <trkpt lat="42.88894" lon="0.98917">
        <ele>1195</ele>
        <time>2021-08-18T09:16:32+02:00</time>
      </trkpt>
      <trkpt lat="42.889" lon="0.98935">
        <ele>1203</ele>
        <time>2021-08-18T09:16:55+02:00</time>
      </trkpt>
      <trkpt lat="42.88908" lon="0.9895">
        <ele>1201</ele>
        <time>2021-08-18T09:17:17+02:00</time>
      </trkpt>
      <trkpt lat="42.88915" lon="0.98968">
        <ele>1201</ele>
        <time>2021-08-18T09:17:27+02:00</time>
      </trkpt>
      <trkpt lat="42.88923" lon="0.98983">
        <ele>1205</ele>
        <time>2021-08-18T09:17:40+02:00</time>
      </trkpt>
      <trkpt lat="42.88927" lon="0.99001">
        <ele>1211</ele>
        <time>2021-08-18T09:18:04+02:00</time>
      </trkpt>
      <trkpt lat="42.88932" lon="0.99019">
        <ele>1213</ele>
        <time>2021-08-18T09:18:18+02:00</time>
      </trkpt>
      <trkpt lat="42.88931" lon="0.99038">
        <ele>1211</ele>
        <time>2021-08-18T09:18:31+02:00</time>
      </trkpt>
      <trkpt lat="42.88943" lon="0.99045">
        <ele>1215</ele>
        <time>2021-08-18T09:18:48+02:00</time>
      </trkpt>
      <trkpt lat="42.88949" lon="0.99062">
        <ele>1221</ele>
        <time>2021-08-18T09:19:27+02:00</time>
      </trkpt>
      <trkpt lat="42.88957" lon="0.99078">
        <ele>1227</ele>
        <time>2021-08-18T09:19:55+02:00</time>
      </trkpt>
      <trkpt lat="42.8896" lon="0.99097">
        <ele>1233</ele>
        <time>2021-08-18T09:20:14+02:00</time>
      </trkpt>
      <trkpt lat="42.88963" lon="0.99115">
        <ele>1236</ele>
        <time>2021-08-18T09:20:27+02:00</time>
      </trkpt>
      <trkpt lat="42.88972" lon="0.99129">
        <ele>1235</ele>
        <time>2021-08-18T09:21:01+02:00</time>
      </trkpt>
      <trkpt lat="42.88977" lon="0.99147">
        <ele>1239</ele>
        <time>2021-08-18T09:21:30+02:00</time>
      </trkpt>
      <trkpt lat="42.88977" lon="0.99168">
        <ele>1242</ele>
        <time>2021-08-18T09:22:16+02:00</time>
      </trkpt>
      <trkpt lat="42.88984" lon="0.99184">
        <ele>1246</ele>
        <time>2021-08-18T09:22:32+02:00</time>
      </trkpt>
      <trkpt lat="42.88998" lon="0.99195">
        <ele>1240</ele>
        <time>2021-08-18T09:22:41+02:00</time>
      </trkpt>
      <trkpt lat="42.88988" lon="0.99208">
        <ele>1234</ele>
        <time>2021-08-18T09:22:52+02:00</time>
      </trkpt>
      <trkpt lat="42.88995" lon="0.99226">
        <ele>1226</ele>
        <time>2021-08-18T09:23:25+02:00</time>
      </trkpt>
      <trkpt lat="42.8901" lon="0.99236">
        <ele>1236</ele>
        <time>2021-08-18T09:24:04+02:00</time>
      </trkpt>
      <trkpt lat="42.89018" lon="0.99252">
        <ele>1239</ele>
        <time>2021-08-18T09:24:23+02:00</time>
      </trkpt>
      <trkpt lat="42.8901" lon="0.99269">
        <ele>1246</ele>
        <time>2021-08-18T09:24:41+02:00</time>
      </trkpt>
      <trkpt lat="42.89006" lon="0.99287">
        <ele>1252</ele>
        <time>2021-08-18T09:24:53+02:00</time>
      </trkpt>
      <trkpt lat="42.89016" lon="0.993">
        <ele>1269</ele>
        <time>2021-08-18T09:25:15+02:00</time>
      </trkpt>
      <trkpt lat="42.89016" lon="0.99319">
        <ele>1270</ele>
        <time>2021-08-18T09:26:32+02:00</time>
      </trkpt>
      <trkpt lat="42.89024" lon="0.99334">
        <ele>1267</ele>
        <time>2021-08-18T09:26:51+02:00</time>
      </trkpt>
      <trkpt lat="42.89027" lon="0.99353">
        <ele>1260</ele>
        <time>2021-08-18T09:30:30+02:00</time>
      </trkpt>
      <trkpt lat="42.89032" lon="0.9937">
        <ele>1255</ele>
        <time>2021-08-18T09:30:52+02:00</time>
      </trkpt>
      <trkpt lat="42.89031" lon="0.99389">
        <ele>1253</ele>
        <time>2021-08-18T09:31:35+02:00</time>
      </trkpt>
      <trkpt lat="42.89031" lon="0.99369">
        <ele>1250</ele>
        <time>2021-08-18T09:32:00+02:00</time>
      </trkpt>
      <trkpt lat="42.89021" lon="0.99357">
        <ele>1249</ele>
        <time>2021-08-18T09:32:06+02:00</time>
      </trkpt>
      <trkpt lat="42.89028" lon="0.99375">
        <ele>1247</ele>
        <time>2021-08-18T09:32:20+02:00</time>
      </trkpt>
      <trkpt lat="42.89032" lon="0.99393">
        <ele>1246</ele>
        <time>2021-08-18T09:32:26+02:00</time>
      </trkpt>
      <trkpt lat="42.89043" lon="0.99405">
        <ele>1244</ele>
        <time>2021-08-18T09:32:59+02:00</time>
      </trkpt>
      <trkpt lat="42.89049" lon="0.99389">
        <ele>1253</ele>
        <time>2021-08-18T09:33:44+02:00</time>
      </trkpt>
      <trkpt lat="42.8905" lon="0.99369">
        <ele>1259</ele>
        <time>2021-08-18T09:34:06+02:00</time>
      </trkpt>
      <trkpt lat="42.89063" lon="0.99373">
        <ele>1269</ele>
        <time>2021-08-18T09:35:22+02:00</time>
      </trkpt>
      <trkpt lat="42.89069" lon="0.9939">
        <ele>1267</ele>
        <time>2021-08-18T09:35:48+02:00</time>
      </trkpt>
      <trkpt lat="42.89076" lon="0.99406">
        <ele>1270</ele>
        <time>2021-08-18T09:36:08+02:00</time>
      </trkpt>
      <trkpt lat="42.89083" lon="0.99423">
        <ele>1274</ele>
        <time>2021-08-18T09:36:27+02:00</time>
      </trkpt>
      <trkpt lat="42.89091" lon="0.99438">
        <ele>1276</ele>
        <time>2021-08-18T09:36:50+02:00</time>
      </trkpt>
      <trkpt lat="42.89098" lon="0.99454">
        <ele>1279</ele>
        <time>2021-08-18T09:37:12+02:00</time>
      </trkpt>
      <trkpt lat="42.8911" lon="0.99448">
        <ele>1286</ele>
        <time>2021-08-18T09:38:12+02:00</time>
      </trkpt>
      <trkpt lat="42.89119" lon="0.99464">
        <ele>1287</ele>
        <time>2021-08-18T09:40:27+02:00</time>
      </trkpt>
      <trkpt lat="42.89129" lon="0.99475">
        <ele>1289</ele>
        <time>2021-08-18T09:41:34+02:00</time>
      </trkpt>
      <trkpt lat="42.89139" lon="0.9949">
        <ele>1291</ele>
        <time>2021-08-18T09:41:58+02:00</time>
      </trkpt>
      <trkpt lat="42.89147" lon="0.99475">
        <ele>1293</ele>
        <time>2021-08-18T09:42:56+02:00</time>
      </trkpt>
      <trkpt lat="42.89145" lon="0.99457">
        <ele>1297</ele>
        <time>2021-08-18T09:43:35+02:00</time>
      </trkpt>
      <trkpt lat="42.89146" lon="0.99438">
        <ele>1296</ele>
        <time>2021-08-18T09:44:01+02:00</time>
      </trkpt>
      <trkpt lat="42.89146" lon="0.99419">
        <ele>1299</ele>
        <time>2021-08-18T09:44:19+02:00</time>
      </trkpt>
      <trkpt lat="42.89145" lon="0.994">
        <ele>1301</ele>
        <time>2021-08-18T09:44:49+02:00</time>
      </trkpt>
      <trkpt lat="42.89146" lon="0.99382">
        <ele>1305</ele>
        <time>2021-08-18T09:45:06+02:00</time>
      </trkpt>
      <trkpt lat="42.89144" lon="0.99363">
        <ele>1305</ele>
        <time>2021-08-18T09:45:29+02:00</time>
      </trkpt>
      <trkpt lat="42.89142" lon="0.99343">
        <ele>1309</ele>
        <time>2021-08-18T09:45:55+02:00</time>
      </trkpt>
      <trkpt lat="42.89142" lon="0.99324">
        <ele>1310</ele>
        <time>2021-08-18T09:46:16+02:00</time>
      </trkpt>
      <trkpt lat="42.8914" lon="0.99304">
        <ele>1310</ele>
        <time>2021-08-18T09:46:40+02:00</time>
      </trkpt>
      <trkpt lat="42.89137" lon="0.99286">
        <ele>1312</ele>
        <time>2021-08-18T09:47:05+02:00</time>
      </trkpt>
      <trkpt lat="42.89132" lon="0.99268">
        <ele>1316</ele>
        <time>2021-08-18T09:47:28+02:00</time>
      </trkpt>
      <trkpt lat="42.89126" lon="0.99252">
        <ele>1315</ele>
        <time>2021-08-18T09:47:45+02:00</time>
      </trkpt>
      <trkpt lat="42.89124" lon="0.99234">
        <ele>1315</ele>
        <time>2021-08-18T09:48:06+02:00</time>
      </trkpt>
      <trkpt lat="42.89124" lon="0.99214">
        <ele>1316</ele>
        <time>2021-08-18T09:48:30+02:00</time>
      </trkpt>
      <trkpt lat="42.89121" lon="0.99196">
        <ele>1321</ele>
        <time>2021-08-18T09:48:43+02:00</time>
      </trkpt>
      <trkpt lat="42.89123" lon="0.99177">
        <ele>1321</ele>
        <time>2021-08-18T09:49:01+02:00</time>
      </trkpt>
      <trkpt lat="42.89123" lon="0.99159">
        <ele>1323</ele>
        <time>2021-08-18T09:49:20+02:00</time>
      </trkpt>
      <trkpt lat="42.89125" lon="0.9914">
        <ele>1323</ele>
        <time>2021-08-18T09:49:43+02:00</time>
      </trkpt>
      <trkpt lat="42.89128" lon="0.99121">
        <ele>1322</ele>
        <time>2021-08-18T09:50:04+02:00</time>
      </trkpt>
      <trkpt lat="42.89128" lon="0.99103">
        <ele>1322</ele>
        <time>2021-08-18T09:50:23+02:00</time>
      </trkpt>
      <trkpt lat="42.89128" lon="0.99084">
        <ele>1326</ele>
        <time>2021-08-18T09:50:40+02:00</time>
      </trkpt>
      <trkpt lat="42.89128" lon="0.99065">
        <ele>1325</ele>
        <time>2021-08-18T09:50:59+02:00</time>
      </trkpt>
      <trkpt lat="42.89128" lon="0.99046">
        <ele>1327</ele>
        <time>2021-08-18T09:51:19+02:00</time>
      </trkpt>
      <trkpt lat="42.89128" lon="0.99028">
        <ele>1329</ele>
        <time>2021-08-18T09:51:38+02:00</time>
      </trkpt>
      <trkpt lat="42.8913" lon="0.99009">
        <ele>1327</ele>
        <time>2021-08-18T09:51:57+02:00</time>
      </trkpt>
      <trkpt lat="42.8913" lon="0.9899">
        <ele>1331</ele>
        <time>2021-08-18T09:52:16+02:00</time>
      </trkpt>
      <trkpt lat="42.89127" lon="0.98971">
        <ele>1334</ele>
        <time>2021-08-18T09:52:34+02:00</time>
      </trkpt>
      <trkpt lat="42.89124" lon="0.98952">
        <ele>1331</ele>
        <time>2021-08-18T09:52:52+02:00</time>
      </trkpt>
      <trkpt lat="42.89124" lon="0.98933">
        <ele>1332</ele>
        <time>2021-08-18T09:53:15+02:00</time>
      </trkpt>
      <trkpt lat="42.89123" lon="0.98914">
        <ele>1335</ele>
        <time>2021-08-18T09:53:34+02:00</time>
      </trkpt>
      <trkpt lat="42.89122" lon="0.98895">
        <ele>1337</ele>
        <time>2021-08-18T09:53:50+02:00</time>
      </trkpt>
      <trkpt lat="42.89118" lon="0.98877">
        <ele>1336</ele>
        <time>2021-08-18T09:54:15+02:00</time>
      </trkpt>
      <trkpt lat="42.89119" lon="0.98858">
        <ele>1338</ele>
        <time>2021-08-18T09:54:44+02:00</time>
      </trkpt>
      <trkpt lat="42.8912" lon="0.98839">
        <ele>1336</ele>
        <time>2021-08-18T09:55:08+02:00</time>
      </trkpt>
      <trkpt lat="42.89117" lon="0.98821">
        <ele>1336</ele>
        <time>2021-08-18T09:55:27+02:00</time>
      </trkpt>
      <trkpt lat="42.89112" lon="0.98803">
        <ele>1336</ele>
        <time>2021-08-18T09:55:45+02:00</time>
      </trkpt>
      <trkpt lat="42.89111" lon="0.98785">
        <ele>1341</ele>
        <time>2021-08-18T09:56:09+02:00</time>
      </trkpt>
      <trkpt lat="42.89108" lon="0.98766">
        <ele>1344</ele>
        <time>2021-08-18T09:56:31+02:00</time>
      </trkpt>
      <trkpt lat="42.8911" lon="0.98747">
        <ele>1345</ele>
        <time>2021-08-18T09:56:56+02:00</time>
      </trkpt>
      <trkpt lat="42.89108" lon="0.98727">
        <ele>1346</ele>
        <time>2021-08-18T09:57:23+02:00</time>
      </trkpt>
      <trkpt lat="42.89106" lon="0.98708">
        <ele>1344</ele>
        <time>2021-08-18T09:57:43+02:00</time>
      </trkpt>
      <trkpt lat="42.89105" lon="0.9869">
        <ele>1346</ele>
        <time>2021-08-18T09:58:04+02:00</time>
      </trkpt>
      <trkpt lat="42.89106" lon="0.98671">
        <ele>1353</ele>
        <time>2021-08-18T09:58:24+02:00</time>
      </trkpt>
      <trkpt lat="42.89106" lon="0.98652">
        <ele>1352</ele>
        <time>2021-08-18T09:58:46+02:00</time>
      </trkpt>
      <trkpt lat="42.89103" lon="0.98634">
        <ele>1348</ele>
        <time>2021-08-18T09:59:04+02:00</time>
      </trkpt>
      <trkpt lat="42.89103" lon="0.98615">
        <ele>1350</ele>
        <time>2021-08-18T09:59:20+02:00</time>
      </trkpt>
      <trkpt lat="42.89102" lon="0.98596">
        <ele>1355</ele>
        <time>2021-08-18T09:59:39+02:00</time>
      </trkpt>
      <trkpt lat="42.89101" lon="0.98577">
        <ele>1357</ele>
        <time>2021-08-18T10:00:17+02:00</time>
      </trkpt>
      <trkpt lat="42.89103" lon="0.98559">
        <ele>1353</ele>
        <time>2021-08-18T10:00:49+02:00</time>
      </trkpt>
      <trkpt lat="42.89101" lon="0.98539">
        <ele>1355</ele>
        <time>2021-08-18T10:01:11+02:00</time>
      </trkpt>
      <trkpt lat="42.89097" lon="0.98521">
        <ele>1355</ele>
        <time>2021-08-18T10:01:26+02:00</time>
      </trkpt>
      <trkpt lat="42.89096" lon="0.98501">
        <ele>1357</ele>
        <time>2021-08-18T10:01:42+02:00</time>
      </trkpt>
      <trkpt lat="42.89096" lon="0.98482">
        <ele>1361</ele>
        <time>2021-08-18T10:02:03+02:00</time>
      </trkpt>
      <trkpt lat="42.89094" lon="0.98464">
        <ele>1366</ele>
        <time>2021-08-18T10:02:20+02:00</time>
      </trkpt>
      <trkpt lat="42.89093" lon="0.98445">
        <ele>1366</ele>
        <time>2021-08-18T10:03:51+02:00</time>
      </trkpt>
      <trkpt lat="42.89092" lon="0.98426">
        <ele>1368</ele>
        <time>2021-08-18T10:04:14+02:00</time>
      </trkpt>
      <trkpt lat="42.8909" lon="0.98406">
        <ele>1370</ele>
        <time>2021-08-18T10:04:56+02:00</time>
      </trkpt>
      <trkpt lat="42.89089" lon="0.98386">
        <ele>1370</ele>
        <time>2021-08-18T10:05:08+02:00</time>
      </trkpt>
      <trkpt lat="42.8909" lon="0.98367">
        <ele>1372</ele>
        <time>2021-08-18T10:05:21+02:00</time>
      </trkpt>
      <trkpt lat="42.89094" lon="0.98349">
        <ele>1374</ele>
        <time>2021-08-18T10:05:38+02:00</time>
      </trkpt>
      <trkpt lat="42.89094" lon="0.9833">
        <ele>1377</ele>
        <time>2021-08-18T10:06:00+02:00</time>
      </trkpt>
      <trkpt lat="42.8909" lon="0.98311">
        <ele>1380</ele>
        <time>2021-08-18T10:06:20+02:00</time>
      </trkpt>
      <trkpt lat="42.8909" lon="0.98292">
        <ele>1384</ele>
        <time>2021-08-18T10:06:45+02:00</time>
      </trkpt>
      <trkpt lat="42.89094" lon="0.98273">
        <ele>1386</ele>
        <time>2021-08-18T10:06:57+02:00</time>
      </trkpt>
      <trkpt lat="42.89097" lon="0.98254">
        <ele>1387</ele>
        <time>2021-08-18T10:07:08+02:00</time>
      </trkpt>
      <trkpt lat="42.89104" lon="0.98238">
        <ele>1386</ele>
        <time>2021-08-18T10:07:26+02:00</time>
      </trkpt>
      <trkpt lat="42.89108" lon="0.98219">
        <ele>1386</ele>
        <time>2021-08-18T10:07:47+02:00</time>
      </trkpt>
      <trkpt lat="42.89115" lon="0.98204">
        <ele>1385</ele>
        <time>2021-08-18T10:08:01+02:00</time>
      </trkpt>
      <trkpt lat="42.89122" lon="0.98188">
        <ele>1381</ele>
        <time>2021-08-18T10:08:16+02:00</time>
      </trkpt>
      <trkpt lat="42.89134" lon="0.98175">
        <ele>1378</ele>
        <time>2021-08-18T10:08:35+02:00</time>
      </trkpt>
      <trkpt lat="42.89142" lon="0.98159">
        <ele>1375</ele>
        <time>2021-08-18T10:08:55+02:00</time>
      </trkpt>
      <trkpt lat="42.89147" lon="0.98142">
        <ele>1379</ele>
        <time>2021-08-18T10:09:16+02:00</time>
      </trkpt>
      <trkpt lat="42.89149" lon="0.98123">
        <ele>1384</ele>
        <time>2021-08-18T10:09:33+02:00</time>
      </trkpt>
      <trkpt lat="42.89158" lon="0.98108">
        <ele>1385</ele>
        <time>2021-08-18T10:10:11+02:00</time>
      </trkpt>
      <trkpt lat="42.89172" lon="0.98107">
        <ele>1385</ele>
        <time>2021-08-18T10:10:41+02:00</time>
      </trkpt>
      <trkpt lat="42.89186" lon="0.98109">
        <ele>1383</ele>
        <time>2021-08-18T10:10:56+02:00</time>
      </trkpt>
      <trkpt lat="42.89196" lon="0.98123">
        <ele>1387</ele>
        <time>2021-08-18T10:26:40+02:00</time>
      </trkpt>
      <trkpt lat="42.89209" lon="0.9812">
        <ele>1405</ele>
        <time>2021-08-18T10:26:57+02:00</time>
      </trkpt>
      <trkpt lat="42.89223" lon="0.98127">
        <ele>1396</ele>
        <time>2021-08-18T10:27:17+02:00</time>
      </trkpt>
      <trkpt lat="42.89236" lon="0.98131">
        <ele>1392</ele>
        <time>2021-08-18T10:27:32+02:00</time>
      </trkpt>
      <trkpt lat="42.8925" lon="0.98133">
        <ele>1394</ele>
        <time>2021-08-18T10:27:48+02:00</time>
      </trkpt>
      <trkpt lat="42.89264" lon="0.98134">
        <ele>1395</ele>
        <time>2021-08-18T10:28:14+02:00</time>
      </trkpt>
      <trkpt lat="42.89278" lon="0.98135">
        <ele>1392</ele>
        <time>2021-08-18T10:28:38+02:00</time>
      </trkpt>
      <trkpt lat="42.89292" lon="0.98135">
        <ele>1392</ele>
        <time>2021-08-18T10:29:04+02:00</time>
      </trkpt>
      <trkpt lat="42.89306" lon="0.98136">
        <ele>1394</ele>
        <time>2021-08-18T10:29:20+02:00</time>
      </trkpt>
      <trkpt lat="42.8932" lon="0.98138">
        <ele>1396</ele>
        <time>2021-08-18T10:29:38+02:00</time>
      </trkpt>
      <trkpt lat="42.89334" lon="0.98141">
        <ele>1398</ele>
        <time>2021-08-18T10:30:02+02:00</time>
      </trkpt>
      <trkpt lat="42.89348" lon="0.98139">
        <ele>1401</ele>
        <time>2021-08-18T10:30:35+02:00</time>
      </trkpt>
      <trkpt lat="42.89362" lon="0.98136">
        <ele>1406</ele>
        <time>2021-08-18T10:30:58+02:00</time>
      </trkpt>
      <trkpt lat="42.89376" lon="0.98131">
        <ele>1409</ele>
        <time>2021-08-18T10:36:10+02:00</time>
      </trkpt>
      <trkpt lat="42.8939" lon="0.98131">
        <ele>1409</ele>
        <time>2021-08-18T10:36:23+02:00</time>
      </trkpt>
      <trkpt lat="42.89378" lon="0.98123">
        <ele>1410</ele>
        <time>2021-08-18T10:41:26+02:00</time>
      </trkpt>
      <trkpt lat="42.89364" lon="0.9813">
        <ele>1408</ele>
        <time>2021-08-18T10:49:21+02:00</time>
      </trkpt>
      <trkpt lat="42.8935" lon="0.98133">
        <ele>1406</ele>
        <time>2021-08-18T10:49:41+02:00</time>
      </trkpt>
      <trkpt lat="42.89337" lon="0.98127">
        <ele>1403</ele>
        <time>2021-08-18T10:50:53+02:00</time>
      </trkpt>
      <trkpt lat="42.89325" lon="0.98117">
        <ele>1400</ele>
        <time>2021-08-18T10:51:46+02:00</time>
      </trkpt>
      <trkpt lat="42.89311" lon="0.98116">
        <ele>1399</ele>
        <time>2021-08-18T10:52:01+02:00</time>
      </trkpt>
      <trkpt lat="42.89297" lon="0.98112">
        <ele>1399</ele>
        <time>2021-08-18T10:52:18+02:00</time>
      </trkpt>
      <trkpt lat="42.89286" lon="0.98101">
        <ele>1397</ele>
        <time>2021-08-18T10:52:35+02:00</time>
      </trkpt>
      <trkpt lat="42.89273" lon="0.98091">
        <ele>1387</ele>
        <time>2021-08-18T10:52:58+02:00</time>
      </trkpt>
      <trkpt lat="42.89261" lon="0.98083">
        <ele>1390</ele>
        <time>2021-08-18T10:53:07+02:00</time>
      </trkpt>
      <trkpt lat="42.89249" lon="0.98073">
        <ele>1389</ele>
        <time>2021-08-18T10:53:22+02:00</time>
      </trkpt>
      <trkpt lat="42.89239" lon="0.9806">
        <ele>1386</ele>
        <time>2021-08-18T10:53:39+02:00</time>
      </trkpt>
      <trkpt lat="42.89227" lon="0.9805">
        <ele>1382</ele>
        <time>2021-08-18T10:53:58+02:00</time>
      </trkpt>
      <trkpt lat="42.89215" lon="0.98041">
        <ele>1381</ele>
        <time>2021-08-18T10:54:17+02:00</time>
      </trkpt>
      <trkpt lat="42.89204" lon="0.98028">
        <ele>1374</ele>
        <time>2021-08-18T10:54:35+02:00</time>
      </trkpt>
      <trkpt lat="42.89193" lon="0.98018">
        <ele>1371</ele>
        <time>2021-08-18T10:54:53+02:00</time>
      </trkpt>
      <trkpt lat="42.89184" lon="0.98004">
        <ele>1368</ele>
        <time>2021-08-18T10:55:13+02:00</time>
      </trkpt>
      <trkpt lat="42.89176" lon="0.97988">
        <ele>1365</ele>
        <time>2021-08-18T10:55:33+02:00</time>
      </trkpt>
      <trkpt lat="42.89167" lon="0.97973">
        <ele>1361</ele>
        <time>2021-08-18T10:56:27+02:00</time>
      </trkpt>
      <trkpt lat="42.89158" lon="0.97959">
        <ele>1360</ele>
        <time>2021-08-18T10:56:46+02:00</time>
      </trkpt>
      <trkpt lat="42.89146" lon="0.97947">
        <ele>1356</ele>
        <time>2021-08-18T10:57:12+02:00</time>
      </trkpt>
      <trkpt lat="42.89139" lon="0.97932">
        <ele>1352</ele>
        <time>2021-08-18T10:57:42+02:00</time>
      </trkpt>
      <trkpt lat="42.89131" lon="0.97917">
        <ele>1350</ele>
        <time>2021-08-18T10:57:55+02:00</time>
      </trkpt>
      <trkpt lat="42.89128" lon="0.97898">
        <ele>1346</ele>
        <time>2021-08-18T10:58:29+02:00</time>
      </trkpt>
      <trkpt lat="42.89119" lon="0.97883">
        <ele>1341</ele>
        <time>2021-08-18T10:58:46+02:00</time>
      </trkpt>
      <trkpt lat="42.89109" lon="0.97869">
        <ele>1337</ele>
        <time>2021-08-18T10:59:03+02:00</time>
      </trkpt>
      <trkpt lat="42.89098" lon="0.97856">
        <ele>1333</ele>
        <time>2021-08-18T10:59:23+02:00</time>
      </trkpt>
      <trkpt lat="42.89086" lon="0.97846">
        <ele>1326</ele>
        <time>2021-08-18T10:59:47+02:00</time>
      </trkpt>
      <trkpt lat="42.89075" lon="0.97834">
        <ele>1323</ele>
        <time>2021-08-18T11:00:04+02:00</time>
      </trkpt>
      <trkpt lat="42.89068" lon="0.97818">
        <ele>1322</ele>
        <time>2021-08-18T11:00:16+02:00</time>
      </trkpt>
      <trkpt lat="42.8906" lon="0.97803">
        <ele>1319</ele>
        <time>2021-08-18T11:00:30+02:00</time>
      </trkpt>
      <trkpt lat="42.89055" lon="0.97786">
        <ele>1313</ele>
        <time>2021-08-18T11:00:49+02:00</time>
      </trkpt>
      <trkpt lat="42.89045" lon="0.97772">
        <ele>1309</ele>
        <time>2021-08-18T11:03:42+02:00</time>
      </trkpt>
      <trkpt lat="42.89038" lon="0.97755">
        <ele>1309</ele>
        <time>2021-08-18T11:04:01+02:00</time>
      </trkpt>
      <trkpt lat="42.89029" lon="0.9774">
        <ele>1308</ele>
        <time>2021-08-18T11:04:24+02:00</time>
      </trkpt>
      <trkpt lat="42.89022" lon="0.97724">
        <ele>1305</ele>
        <time>2021-08-18T11:04:47+02:00</time>
      </trkpt>
      <trkpt lat="42.89016" lon="0.97707">
        <ele>1303</ele>
        <time>2021-08-18T11:05:04+02:00</time>
      </trkpt>
      <trkpt lat="42.8901" lon="0.9769">
        <ele>1303</ele>
        <time>2021-08-18T11:05:23+02:00</time>
      </trkpt>
      <trkpt lat="42.89005" lon="0.97672">
        <ele>1300</ele>
        <time>2021-08-18T11:05:41+02:00</time>
      </trkpt>
      <trkpt lat="42.89" lon="0.97655">
        <ele>1296</ele>
        <time>2021-08-18T11:05:57+02:00</time>
      </trkpt>
      <trkpt lat="42.88996" lon="0.97637">
        <ele>1294</ele>
        <time>2021-08-18T11:06:29+02:00</time>
      </trkpt>
      <trkpt lat="42.88988" lon="0.97621">
        <ele>1291</ele>
        <time>2021-08-18T11:07:05+02:00</time>
      </trkpt>
      <trkpt lat="42.88977" lon="0.97609">
        <ele>1290</ele>
        <time>2021-08-18T11:07:26+02:00</time>
      </trkpt>
      <trkpt lat="42.88968" lon="0.97593">
        <ele>1288</ele>
        <time>2021-08-18T11:07:40+02:00</time>
      </trkpt>
      <trkpt lat="42.88967" lon="0.97575">
        <ele>1287</ele>
        <time>2021-08-18T11:07:57+02:00</time>
      </trkpt>
      <trkpt lat="42.88974" lon="0.9756">
        <ele>1285</ele>
        <time>2021-08-18T11:08:13+02:00</time>
      </trkpt>
      <trkpt lat="42.8898" lon="0.97542">
        <ele>1283</ele>
        <time>2021-08-18T11:11:29+02:00</time>
      </trkpt>
      <trkpt lat="42.88982" lon="0.97523">
        <ele>1280</ele>
        <time>2021-08-18T11:12:15+02:00</time>
      </trkpt>
      <trkpt lat="42.88973" lon="0.97508">
        <ele>1276</ele>
        <time>2021-08-18T11:12:40+02:00</time>
      </trkpt>
      <trkpt lat="42.8896" lon="0.97506">
        <ele>1271</ele>
        <time>2021-08-18T11:13:18+02:00</time>
      </trkpt>
      <trkpt lat="42.88946" lon="0.97502">
        <ele>1268</ele>
        <time>2021-08-18T11:13:55+02:00</time>
      </trkpt>
      <trkpt lat="42.88932" lon="0.97501">
        <ele>1266</ele>
        <time>2021-08-18T11:14:33+02:00</time>
      </trkpt>
      <trkpt lat="42.8892" lon="0.97492">
        <ele>1263</ele>
        <time>2021-08-18T11:15:57+02:00</time>
      </trkpt>
      <trkpt lat="42.88906" lon="0.97486">
        <ele>1262</ele>
        <time>2021-08-18T11:16:22+02:00</time>
      </trkpt>
      <trkpt lat="42.88892" lon="0.97481">
        <ele>1259</ele>
        <time>2021-08-18T11:16:32+02:00</time>
      </trkpt>
      <trkpt lat="42.88877" lon="0.97479">
        <ele>1252</ele>
        <time>2021-08-18T11:17:29+02:00</time>
      </trkpt>
      <trkpt lat="42.88865" lon="0.97493">
        <ele>1247</ele>
        <time>2021-08-18T11:18:29+02:00</time>
      </trkpt>
      <trkpt lat="42.88858" lon="0.9751">
        <ele>1246</ele>
        <time>2021-08-18T11:18:54+02:00</time>
      </trkpt>
      <trkpt lat="42.88854" lon="0.97529">
        <ele>1243</ele>
        <time>2021-08-18T11:19:26+02:00</time>
      </trkpt>
      <trkpt lat="42.88845" lon="0.97545">
        <ele>1240</ele>
        <time>2021-08-18T11:20:01+02:00</time>
      </trkpt>
      <trkpt lat="42.88839" lon="0.97563">
        <ele>1238</ele>
        <time>2021-08-18T11:20:26+02:00</time>
      </trkpt>
      <trkpt lat="42.8883" lon="0.97579">
        <ele>1238</ele>
        <time>2021-08-18T11:20:49+02:00</time>
      </trkpt>
      <trkpt lat="42.88823" lon="0.97595">
        <ele>1236</ele>
        <time>2021-08-18T11:21:06+02:00</time>
      </trkpt>
      <trkpt lat="42.88813" lon="0.97607">
        <ele>1232</ele>
        <time>2021-08-18T11:21:20+02:00</time>
      </trkpt>
      <trkpt lat="42.88803" lon="0.97621">
        <ele>1227</ele>
        <time>2021-08-18T11:21:56+02:00</time>
      </trkpt>
      <trkpt lat="42.88795" lon="0.97641">
        <ele>1225</ele>
        <time>2021-08-18T11:22:45+02:00</time>
      </trkpt>
      <trkpt lat="42.88787" lon="0.97658">
        <ele>1221</ele>
        <time>2021-08-18T11:23:05+02:00</time>
      </trkpt>
      <trkpt lat="42.88782" lon="0.97676">
        <ele>1216</ele>
        <time>2021-08-18T11:23:30+02:00</time>
      </trkpt>
      <trkpt lat="42.88772" lon="0.97691">
        <ele>1213</ele>
        <time>2021-08-18T11:25:24+02:00</time>
      </trkpt>
      <trkpt lat="42.88765" lon="0.97711">
        <ele>1211</ele>
        <time>2021-08-18T11:25:48+02:00</time>
      </trkpt>
      <trkpt lat="42.88759" lon="0.97728">
        <ele>1211</ele>
        <time>2021-08-18T11:25:59+02:00</time>
      </trkpt>
      <trkpt lat="42.88753" lon="0.97745">
        <ele>1207</ele>
        <time>2021-08-18T11:26:16+02:00</time>
      </trkpt>
      <trkpt lat="42.8875" lon="0.97766">
        <ele>1202</ele>
        <time>2021-08-18T11:26:58+02:00</time>
      </trkpt>
      <trkpt lat="42.88747" lon="0.97785">
        <ele>1197</ele>
        <time>2021-08-18T11:27:07+02:00</time>
      </trkpt>
      <trkpt lat="42.88749" lon="0.97804">
        <ele>1194</ele>
        <time>2021-08-18T11:27:43+02:00</time>
      </trkpt>
      <trkpt lat="42.88753" lon="0.97821">
        <ele>1191</ele>
        <time>2021-08-18T11:28:01+02:00</time>
      </trkpt>
      <trkpt lat="42.88749" lon="0.97839">
        <ele>1181</ele>
        <time>2021-08-18T11:28:44+02:00</time>
      </trkpt>
      <trkpt lat="42.88742" lon="0.97855">
        <ele>1176</ele>
        <time>2021-08-18T11:29:05+02:00</time>
      </trkpt>
      <trkpt lat="42.88737" lon="0.97873">
        <ele>1170</ele>
        <time>2021-08-18T11:29:52+02:00</time>
      </trkpt>
      <trkpt lat="42.88735" lon="0.97893">
        <ele>1168</ele>
        <time>2021-08-18T11:30:03+02:00</time>
      </trkpt>
      <trkpt lat="42.88732" lon="0.97912">
        <ele>1162</ele>
        <time>2021-08-18T11:30:27+02:00</time>
      </trkpt>
      <trkpt lat="42.88729" lon="0.97932">
        <ele>1161</ele>
        <time>2021-08-18T11:31:01+02:00</time>
      </trkpt>
      <trkpt lat="42.88729" lon="0.97955">
        <ele>1155</ele>
        <time>2021-08-18T11:31:45+02:00</time>
      </trkpt>
      <trkpt lat="42.88727" lon="0.97973">
        <ele>1151</ele>
        <time>2021-08-18T11:32:13+02:00</time>
      </trkpt>
      <trkpt lat="42.88726" lon="0.97993">
        <ele>1146</ele>
        <time>2021-08-18T11:32:26+02:00</time>
      </trkpt>
      <trkpt lat="42.88726" lon="0.98011">
        <ele>1143</ele>
        <time>2021-08-18T11:32:40+02:00</time>
      </trkpt>
      <trkpt lat="42.88727" lon="0.98031">
        <ele>1138</ele>
        <time>2021-08-18T11:32:56+02:00</time>
      </trkpt>
      <trkpt lat="42.88731" lon="0.98049">
        <ele>1133</ele>
        <time>2021-08-18T11:33:13+02:00</time>
      </trkpt>
      <trkpt lat="42.8874" lon="0.98067">
        <ele>1129</ele>
        <time>2021-08-18T11:33:33+02:00</time>
      </trkpt>
      <trkpt lat="42.88745" lon="0.98084">
        <ele>1127</ele>
        <time>2021-08-18T11:33:40+02:00</time>
      </trkpt>
      <trkpt lat="42.88744" lon="0.98104">
        <ele>1125</ele>
        <time>2021-08-18T11:33:57+02:00</time>
      </trkpt>
      <trkpt lat="42.88741" lon="0.98122">
        <ele>1123</ele>
        <time>2021-08-18T11:34:26+02:00</time>
      </trkpt>
      <trkpt lat="42.88738" lon="0.98141">
        <ele>1121</ele>
        <time>2021-08-18T11:34:35+02:00</time>
      </trkpt>
      <trkpt lat="42.88734" lon="0.98161">
        <ele>1121</ele>
        <time>2021-08-18T11:36:44+02:00</time>
      </trkpt>
      <trkpt lat="42.88722" lon="0.98172">
        <ele>1119</ele>
        <time>2021-08-18T11:37:07+02:00</time>
      </trkpt>
      <trkpt lat="42.88707" lon="0.98173">
        <ele>1113</ele>
        <time>2021-08-18T11:38:20+02:00</time>
      </trkpt>
      <trkpt lat="42.88693" lon="0.98171">
        <ele>1110</ele>
        <time>2021-08-18T11:38:50+02:00</time>
      </trkpt>
      <trkpt lat="42.8868" lon="0.98178">
        <ele>1105</ele>
        <time>2021-08-18T11:39:22+02:00</time>
      </trkpt>
      <trkpt lat="42.88666" lon="0.98178">
        <ele>1101</ele>
        <time>2021-08-18T11:39:49+02:00</time>
      </trkpt>
      <trkpt lat="42.88651" lon="0.9818">
        <ele>1096</ele>
        <time>2021-08-18T11:40:47+02:00</time>
      </trkpt>
      <trkpt lat="42.88637" lon="0.98184">
        <ele>1092</ele>
        <time>2021-08-18T11:41:14+02:00</time>
      </trkpt>
      <trkpt lat="42.88622" lon="0.98191">
        <ele>1087</ele>
        <time>2021-08-18T11:41:38+02:00</time>
      </trkpt>
      <trkpt lat="42.8861" lon="0.982">
        <ele>1081</ele>
        <time>2021-08-18T11:42:41+02:00</time>
      </trkpt>
      <trkpt lat="42.886" lon="0.98215">
        <ele>1078</ele>
        <time>2021-08-18T11:42:46+02:00</time>
      </trkpt>
      <trkpt lat="42.88586" lon="0.98218">
        <ele>1070</ele>
        <time>2021-08-18T11:43:34+02:00</time>
      </trkpt>
      <trkpt lat="42.88572" lon="0.98221">
        <ele>1065</ele>
        <time>2021-08-18T11:43:46+02:00</time>
      </trkpt>
      <trkpt lat="42.88558" lon="0.98227">
        <ele>1061</ele>
        <time>2021-08-18T11:44:06+02:00</time>
      </trkpt>
      <trkpt lat="42.88544" lon="0.98226">
        <ele>1055</ele>
        <time>2021-08-18T11:44:18+02:00</time>
      </trkpt>
      <trkpt lat="42.88531" lon="0.98221">
        <ele>1044</ele>
        <time>2021-08-18T11:44:38+02:00</time>
      </trkpt>
      <trkpt lat="42.8852" lon="0.98209">
        <ele>1040</ele>
        <time>2021-08-18T11:45:01+02:00</time>
      </trkpt>
      <trkpt lat="42.88514" lon="0.98193">
        <ele>1036</ele>
        <time>2021-08-18T11:45:30+02:00</time>
      </trkpt>
      <trkpt lat="42.88512" lon="0.98173">
        <ele>1037</ele>
        <time>2021-08-18T11:46:05+02:00</time>
      </trkpt>
      <trkpt lat="42.88498" lon="0.9818">
        <ele>1036</ele>
        <time>2021-08-18T11:47:23+02:00</time>
      </trkpt>
      <trkpt lat="42.88489" lon="0.98193">
        <ele>1034</ele>
        <time>2021-08-18T11:48:04+02:00</time>
      </trkpt>
      <trkpt lat="42.88477" lon="0.98208">
        <ele>1030</ele>
        <time>2021-08-18T11:48:38+02:00</time>
      </trkpt>
      <trkpt lat="42.88465" lon="0.98218">
        <ele>1024</ele>
        <time>2021-08-18T11:49:09+02:00</time>
      </trkpt>
      <trkpt lat="42.88456" lon="0.98233">
        <ele>1020</ele>
        <time>2021-08-18T11:49:29+02:00</time>
      </trkpt>
      <trkpt lat="42.88453" lon="0.98251">
        <ele>1011</ele>
        <time>2021-08-18T11:50:05+02:00</time>
      </trkpt>
      <trkpt lat="42.8845" lon="0.98271">
        <ele>1005</ele>
        <time>2021-08-18T11:50:19+02:00</time>
      </trkpt>
      <trkpt lat="42.88439" lon="0.98259">
        <ele>996</ele>
        <time>2021-08-18T11:52:26+02:00</time>
      </trkpt>
      <trkpt lat="42.88435" lon="0.98241">
        <ele>992</ele>
        <time>2021-08-18T11:52:55+02:00</time>
      </trkpt>
      <trkpt lat="42.88429" lon="0.98225">
        <ele>990</ele>
        <time>2021-08-18T11:53:21+02:00</time>
      </trkpt>
      <trkpt lat="42.88424" lon="0.98206">
        <ele>987</ele>
        <time>2021-08-18T11:53:44+02:00</time>
      </trkpt>
      <trkpt lat="42.88425" lon="0.98187">
        <ele>985</ele>
        <time>2021-08-18T11:53:56+02:00</time>
      </trkpt>
      <trkpt lat="42.8842" lon="0.98169">
        <ele>985</ele>
        <time>2021-08-18T11:54:07+02:00</time>
      </trkpt>
      <trkpt lat="42.88409" lon="0.98157">
        <ele>984</ele>
        <time>2021-08-18T11:54:25+02:00</time>
      </trkpt>
      <trkpt lat="42.88396" lon="0.98152">
        <ele>981</ele>
        <time>2021-08-18T11:54:43+02:00</time>
      </trkpt>
      <trkpt lat="42.88387" lon="0.98138">
        <ele>979</ele>
        <time>2021-08-18T11:55:04+02:00</time>
      </trkpt>
      <trkpt lat="42.88375" lon="0.98128">
        <ele>977</ele>
        <time>2021-08-18T11:55:19+02:00</time>
      </trkpt>
      <trkpt lat="42.88361" lon="0.98125">
        <ele>974</ele>
        <time>2021-08-18T11:55:33+02:00</time>
      </trkpt>
      <trkpt lat="42.88348" lon="0.98132">
        <ele>971</ele>
        <time>2021-08-18T11:55:46+02:00</time>
      </trkpt>
      <trkpt lat="42.88335" lon="0.98131">
        <ele>969</ele>
        <time>2021-08-18T11:56:01+02:00</time>
      </trkpt>
      <trkpt lat="42.88321" lon="0.98125">
        <ele>967</ele>
        <time>2021-08-18T11:56:14+02:00</time>
      </trkpt>
    </trkseg>
  </trk>
</gpx>